createdAt,value
2022-10-12T00:04:25.172Z,5.55
2022-10-12T00:10:14.289Z,5.45
2022-10-12T00:16:05.214Z,5.22
2022-10-12T01:15:46.260Z,4.78
2022-10-12T01:22:06.194Z,4.78
2022-10-12T01:28:00.266Z,4.86
2022-10-12T01:49:06.642Z,4.93
2022-10-12T01:54:23.244Z,4.85
2022-10-12T01:59:54.524Z,4.69
2022-10-12T02:05:20.681Z,4.54
2022-10-12T02:10:57.776Z,4.53
2022-10-12T02:16:02.406Z,4.42
2022-10-12T02:21:05.630Z,4.30
2022-10-12T02:26:09.677Z,4.23
2022-10-12T02:31:22.332Z,4.21
2022-10-12T02:37:17.580Z,4.20
2022-10-12T02:42:27.267Z,4.08
2022-10-12T02:47:30.026Z,4.04
2022-10-12T02:52:32.833Z,4.08
2022-10-12T02:57:35.794Z,4.06
2022-10-12T03:02:38.916Z,3.94
2022-10-12T03:07:41.698Z,3.80
2022-10-12T03:12:49.124Z,3.82
2022-10-12T03:17:53.001Z,3.80
2022-10-12T03:22:55.882Z,3.69
2022-10-12T03:27:58.655Z,3.68
2022-10-12T03:33:01.431Z,3.64
2022-10-12T03:38:04.379Z,3.60
2022-10-12T03:43:07.653Z,3.53
2022-10-12T03:48:10.501Z,3.47
2022-10-12T03:53:13.193Z,3.44
2022-10-12T03:58:16.803Z,3.38
2022-10-12T04:03:19.726Z,3.26
2022-10-12T04:08:23.257Z,3.22
2022-10-12T04:13:26.801Z,3.23
2022-10-12T04:18:29.523Z,3.23
2022-10-12T04:23:32.248Z,3.19
2022-10-12T04:28:35.331Z,3.19
2022-10-12T04:33:38.195Z,3.11
2022-10-12T04:38:40.987Z,2.99
2022-10-12T04:43:43.797Z,2.91
2022-10-12T04:48:46.605Z,2.82
2022-10-12T04:53:49.419Z,2.78
2022-10-12T04:58:52.151Z,2.73
2022-10-12T05:03:54.893Z,2.70
2022-10-12T05:08:57.835Z,2.72
2022-10-12T05:14:00.909Z,2.75
2022-10-12T05:19:04.199Z,2.76
2022-10-12T05:24:07.404Z,2.80
2022-10-12T05:29:10.201Z,2.93
2022-10-12T05:34:12.900Z,3.04
2022-10-12T05:39:15.615Z,3.10
2022-10-12T05:44:18.395Z,3.18
2022-10-12T05:49:21.172Z,3.37
2022-10-12T05:54:23.878Z,3.53
2022-10-12T05:59:26.722Z,3.62
2022-10-12T06:04:29.535Z,3.71
2022-10-12T06:09:32.372Z,3.86
2022-10-12T06:14:35.212Z,3.97
2022-10-12T06:19:38.080Z,4.08
2022-10-12T06:24:40.863Z,4.19
2022-10-12T06:29:43.682Z,4.33
2022-10-12T06:34:46.638Z,4.49
2022-10-12T06:39:49.564Z,4.62
2022-10-12T06:44:52.314Z,4.78
2022-10-12T06:49:55.266Z,4.98
2022-10-12T06:54:58.035Z,5.13
2022-10-12T07:00:00.837Z,5.28
2022-10-12T07:05:04.286Z,5.47
2022-10-12T07:10:07.509Z,5.70
2022-10-12T07:15:10.854Z,5.92
2022-10-12T07:20:14.008Z,6.11
2022-10-12T07:25:16.974Z,6.33
2022-10-12T07:30:19.683Z,6.57
2022-10-12T07:35:22.600Z,6.76
2022-10-12T07:40:26.470Z,6.96
2022-10-12T07:45:29.250Z,7.21
2022-10-12T07:50:32.037Z,7.50
2022-10-12T07:55:35.188Z,7.75
2022-10-12T08:00:37.999Z,8.03
2022-10-12T08:05:40.797Z,8.32
2022-10-12T08:10:43.554Z,8.60
2022-10-12T08:15:50.414Z,8.82
2022-10-12T08:20:53.549Z,9.01
2022-10-12T08:25:57.555Z,9.31
2022-10-12T08:31:00.435Z,9.53
2022-10-12T08:36:05.260Z,9.75
2022-10-12T08:41:23.260Z,10.03
2022-10-12T08:46:26.530Z,10.24
2022-10-12T08:51:31.867Z,10.38
2022-10-12T08:56:36.096Z,10.55
2022-10-12T09:01:52.491Z,10.70
2022-10-12T09:07:03.445Z,10.86
2022-10-12T09:12:25.250Z,11.02
2022-10-12T09:17:40.624Z,11.24
2022-10-12T09:22:45.676Z,11.38
2022-10-12T09:27:48.656Z,11.53
2022-10-12T09:33:12.157Z,11.66
2022-10-12T09:38:15.451Z,11.75
2022-10-12T09:43:18.250Z,11.92
2022-10-12T09:48:23.302Z,12.05
2022-10-12T09:53:32.806Z,12.19
2022-10-12T09:59:05.006Z,12.28
2022-10-12T10:04:24.385Z,12.34
2022-10-12T10:09:30.310Z,12.50
2022-10-12T10:14:33.139Z,12.61
2022-10-12T10:19:36.120Z,12.70
2022-10-12T10:24:39.024Z,12.90
2022-10-12T10:29:42.302Z,13.08
2022-10-12T10:34:45.076Z,13.20
2022-10-12T10:39:51.033Z,13.38
2022-10-12T10:45:02.957Z,13.60
2022-10-12T10:50:06.733Z,13.69
2022-10-12T10:55:26.634Z,13.81
2022-10-12T11:00:39.850Z,13.89
2022-10-12T11:05:45.850Z,13.91
2022-10-12T11:10:56.565Z,14.03
2022-10-12T11:16:11.042Z,14.14
2022-10-12T11:21:31.150Z,14.23
2022-10-12T11:26:48.395Z,14.25
2022-10-12T11:32:35.041Z,14.26
2022-10-12T11:37:44.056Z,14.25
2022-10-12T11:42:46.854Z,14.24
2022-10-12T11:47:54.180Z,14.42
2022-10-12T11:52:57.288Z,14.57
2022-10-12T11:58:07.450Z,14.50
2022-10-12T12:03:29.630Z,14.49
2022-10-12T12:08:41.617Z,14.48
2022-10-12T12:13:44.532Z,14.46
2022-10-12T12:19:12.252Z,14.25
2022-10-12T12:24:16.843Z,14.06
2022-10-12T12:29:27.416Z,14.09
2022-10-12T12:34:30.209Z,14.23
2022-10-12T12:39:34.047Z,14.48
2022-10-12T12:44:42.814Z,14.92
2022-10-12T12:49:54.999Z,15.31
2022-10-12T12:55:16.396Z,15.38
2022-10-12T13:00:22.171Z,15.40
2022-10-12T13:05:50.525Z,15.12
2022-10-12T13:11:39.624Z,14.86
2022-10-12T13:22:31.588Z,14.54
2022-10-12T13:27:50.984Z,14.41
2022-10-12T13:33:06.169Z,14.31
2022-10-12T13:38:15.044Z,14.32
2022-10-12T13:43:36.636Z,14.40
2022-10-12T13:48:58.743Z,14.52
2022-10-12T13:54:02.228Z,14.53
2022-10-12T13:59:08.369Z,14.48
2022-10-12T14:04:13.594Z,14.49
2022-10-12T14:09:20.865Z,14.53
2022-10-12T14:14:34.267Z,14.65
2022-10-12T14:19:40.318Z,14.73
2022-10-12T14:24:43.097Z,14.72
2022-10-12T14:29:46.262Z,14.62
2022-10-12T14:34:50.373Z,14.50
2022-10-12T14:39:59.625Z,14.33
2022-10-12T14:45:07.021Z,14.15
2022-10-12T14:50:11.748Z,13.95
2022-10-12T14:55:20.807Z,13.79
2022-10-12T15:00:27.909Z,13.63
2022-10-12T15:05:32.139Z,13.48
2022-10-12T15:10:35.506Z,13.34
2022-10-12T15:15:39.707Z,13.23
2022-10-12T15:20:48.278Z,13.09
2022-10-12T15:25:55.932Z,13.02
2022-10-12T15:31:16.938Z,12.93
2022-10-12T15:36:20.252Z,12.81
2022-10-12T15:41:23.076Z,12.66
2022-10-12T15:46:27.428Z,12.56
2022-10-12T15:51:30.270Z,12.43
2022-10-12T15:56:34.515Z,12.32
2022-10-12T16:01:37.561Z,12.16
2022-10-12T16:06:41.161Z,12.08
2022-10-12T16:11:43.947Z,11.98
2022-10-12T16:16:46.823Z,11.88
2022-10-12T16:21:49.601Z,11.82
2022-10-12T16:26:52.489Z,11.82
2022-10-12T16:31:55.761Z,11.77
2022-10-12T16:36:59.026Z,11.65
2022-10-12T16:42:01.888Z,11.58
2022-10-12T16:47:05.914Z,11.58
2022-10-12T16:52:09.016Z,11.54
2022-10-12T16:57:12.430Z,11.52
2022-10-12T17:02:17.026Z,11.53
2022-10-12T17:07:20.178Z,11.51
2022-10-12T17:12:23.861Z,11.48
2022-10-12T17:17:26.818Z,11.37
2022-10-12T17:22:29.639Z,11.29
2022-10-12T17:27:32.917Z,11.18
2022-10-12T17:32:37.957Z,11.02
2022-10-12T17:37:40.829Z,10.90
2022-10-12T17:42:43.617Z,10.84
2022-10-12T17:47:49.046Z,10.79
2022-10-12T17:52:51.889Z,10.72
2022-10-12T17:57:54.691Z,10.68
2022-10-12T18:02:58.617Z,10.61
2022-10-12T18:08:01.557Z,10.56
2022-10-12T18:13:04.408Z,10.47
2022-10-12T18:18:10.470Z,10.53
2022-10-12T18:23:15.996Z,10.42
2022-10-12T18:28:19.064Z,10.29
2022-10-12T18:33:22.616Z,10.30
2022-10-12T18:38:25.479Z,10.37
2022-10-12T18:43:28.318Z,10.34
2022-10-12T18:48:31.179Z,10.21
2022-10-12T18:53:35.078Z,10.16
2022-10-12T18:58:42.013Z,10.21
2022-10-12T19:03:44.983Z,10.21
2022-10-12T19:08:48.581Z,10.11
2022-10-12T19:13:57.251Z,10.08
2022-10-12T19:19:02.803Z,10.06
2022-10-12T19:24:07.026Z,9.93
2022-10-12T19:29:10.229Z,9.81
2022-10-12T19:34:14.868Z,9.66
2022-10-12T19:39:20.650Z,9.46
2022-10-12T19:44:23.612Z,9.29
2022-10-12T19:49:26.365Z,9.11
2022-10-12T19:54:30.539Z,8.90
2022-10-12T19:59:35.969Z,8.74
2022-10-12T20:04:38.756Z,8.60
2022-10-12T20:09:41.553Z,8.44
2022-10-12T20:14:44.312Z,8.42
2022-10-12T20:19:49.830Z,8.34
2022-10-12T20:24:52.853Z,8.24
2022-10-12T20:29:55.644Z,8.17
2022-10-12T20:34:58.462Z,8.13
2022-10-12T20:40:01.868Z,7.93
2022-10-12T20:45:05.281Z,7.77
2022-10-12T20:50:08.570Z,7.72
2022-10-12T20:55:11.517Z,7.61
2022-10-12T21:00:14.510Z,7.51
2022-10-12T21:05:17.452Z,7.44
2022-10-12T21:10:20.191Z,7.36
2022-10-12T21:15:22.978Z,7.32
2022-10-12T21:20:25.842Z,7.20
2022-10-12T21:25:28.645Z,7.13
2022-10-12T21:30:31.404Z,7.05
2022-10-12T21:35:34.525Z,6.98
2022-10-12T21:40:37.365Z,6.86
2022-10-12T21:45:40.185Z,6.79
2022-10-12T21:50:42.966Z,6.72
2022-10-12T21:55:45.981Z,6.67
2022-10-12T22:00:49.008Z,6.61
2022-10-12T22:05:51.775Z,6.49
2022-10-12T22:10:54.944Z,6.45
2022-10-12T22:16:06.833Z,6.44
2022-10-12T22:21:12.804Z,6.41
2022-10-12T22:26:19.013Z,6.30
2022-10-12T22:31:22.953Z,6.26
2022-10-12T22:36:26.078Z,6.25
2022-10-12T22:41:28.895Z,6.20
2022-10-12T22:46:31.662Z,6.09
2022-10-12T22:51:37.369Z,6.04
2022-10-12T22:56:40.878Z,5.99
2022-10-12T23:01:43.854Z,5.95
2022-10-12T23:06:46.673Z,5.87
2022-10-12T23:11:49.907Z,5.77
2022-10-12T23:16:52.766Z,5.70
2022-10-12T23:21:55.505Z,5.64
2022-10-12T23:26:58.229Z,5.58
2022-10-12T23:32:00.967Z,5.55
2022-10-12T23:37:03.728Z,5.51
2022-10-12T23:42:06.473Z,5.53
2022-10-12T23:47:09.277Z,5.52
2022-10-12T23:52:12.033Z,5.50
2022-10-12T23:57:41.502Z,5.45
